Time;durP1;ratioP1;P1;durP2;ratioP2;P2;SDS_P1;SDS_P2;PMS_P1;PMS_P2;Temp;Humidity;BMP_temperature;BMP_pressure;BME280_temperature;BME280_humidity;BME280_pressure;Samples;Min_cycle;Max_cycle;Signal;HPM_P1;HPM_P2
2021/03/08 00:01:33;;;;;;;0.00;0.00;;;3.70;99.90;;;;;;6215022;23;20375;-71
2021/03/08 00:04:00;;;;;;;0.00;0.00;;;3.80;99.90;;;;;;6214427;23;20375;-70
2021/03/08 00:06:26;;;;;;;0.00;0.00;;;3.80;99.90;;;;;;6214693;23;20375;-71
2021/03/08 00:08:54;;;;;;;0.00;0.00;;;3.80;99.90;;;;;;6214308;23;20375;-71
2021/03/08 00:11:20;;;;;;;0.00;0.00;;;3.90;99.90;;;;;;6214488;23;20375;-70
2021/03/08 00:13:46;;;;;;;0.00;0.00;;;3.90;99.90;;;;;;6214070;23;20422;-70
2021/03/08 00:16:13;;;;;;;0.00;0.00;;;3.60;99.90;;;;;;6214469;23;20433;-70
2021/03/08 00:18:39;;;;;;;0.00;0.00;;;3.70;99.90;;;;;;6214461;23;20926;-70
2021/03/08 00:21:06;;;;;;;0.00;0.00;;;3.80;99.90;;;;;;6214843;23;20372;-71
2021/03/08 00:23:32;;;;;;;0.00;0.00;;;3.80;99.90;;;;;;6214385;23;20402;-70
2021/03/08 00:25:58;;;;;;;0.00;0.00;;;3.60;99.90;;;;;;6214729;23;20379;-71
2021/03/08 00:28:24;;;;;;;0.00;0.00;;;3.40;99.90;;;;;;6214359;23;20371;-70
2021/03/08 00:30:50;;;;;;;0.00;0.00;;;3.30;99.90;;;;;;6214360;23;20379;-70
2021/03/08 00:33:17;;;;;;;0.00;0.00;;;3.40;99.90;;;;;;6214255;23;20388;-70
2021/03/08 00:35:43;;;;;;;0.00;0.00;;;3.50;99.90;;;;;;6214595;23;20392;-71
2021/03/08 00:38:10;;;;;;;0.00;0.00;;;3.40;99.90;;;;;;6215118;23;20376;-72
2021/03/08 00:40:36;;;;;;;0.00;0.00;;;3.60;99.90;;;;;;6214524;23;20478;-71
2021/03/08 00:43:02;;;;;;;0.00;0.00;;;3.60;99.90;;;;;;6214528;23;20371;-70
2021/03/08 00:45:28;;;;;;;0.00;0.00;;;3.50;99.90;;;;;;6214291;23;20376;-71
2021/03/08 00:47:54;;;;;;;0.00;0.00;;;3.30;99.90;;;;;;6214696;23;20422;-71
2021/03/08 00:50:22;;;;;;;0.00;0.00;;;3.30;99.90;;;;;;6214362;23;20430;-71
2021/03/08 00:52:48;;;;;;;0.00;0.00;;;3.40;99.90;;;;;;6213571;23;20398;-70
2021/03/08 00:55:16;;;;;;;0.00;0.00;;;3.30;99.90;;;;;;6214420;23;20407;-71
2021/03/08 00:57:42;;;;;;;0.00;0.00;;;3.30;99.90;;;;;;6214107;23;20391;-71
2021/03/08 01:00:11;;;;;;;0.00;0.00;;;3.30;99.90;;;;;;6214226;23;20375;-70
2021/03/08 01:02:37;;;;;;;0.00;0.00;;;3.40;99.90;;;;;;6213337;23;20688;-70
2021/03/08 01:05:04;;;;;;;0.00;0.00;;;3.50;99.90;;;;;;6213563;23;20424;-71
2021/03/08 01:07:30;;;;;;;0.00;0.00;;;3.50;99.90;;;;;;6214343;23;20375;-70
2021/03/08 01:09:56;;;;;;;0.00;0.00;;;3.40;99.90;;;;;;6213650;23;20426;-70
2021/03/08 01:12:23;;;;;;;0.00;0.00;;;3.10;99.90;;;;;;6214147;23;20880;-70
2021/03/08 01:14:50;;;;;;;0.00;0.00;;;3.10;99.90;;;;;;6213658;23;20387;-70
2021/03/08 01:17:17;;;;;;;0.00;0.00;;;3.20;99.90;;;;;;6214099;23;20383;-70
2021/03/08 01:19:43;;;;;;;0.00;0.00;;;3.40;99.90;;;;;;6214178;23;20426;-70
2021/03/08 01:22:09;;;;;;;0.00;0.00;;;3.40;99.90;;;;;;6213786;23;20384;-70
2021/03/08 01:24:35;;;;;;;0.00;0.00;;;3.30;99.90;;;;;;6213678;23;20418;-70
2021/03/08 01:27:02;;;;;;;0.00;0.00;;;3.10;99.90;;;;;;6213771;23;20463;-70
2021/03/08 01:29:29;;;;;;;0.00;0.00;;;3.20;99.90;;;;;;6214021;23;20375;-70
2021/03/08 01:31:55;;;;;;;0.00;0.00;;;3.30;99.90;;;;;;6213828;23;20438;-70
2021/03/08 01:34:21;;;;;;;0.00;0.00;;;3.40;99.90;;;;;;6213508;23;20375;-71
2021/03/08 01:36:47;;;;;;;0.00;0.00;;;3.20;99.90;;;;;;6214101;23;20382;-70
2021/03/08 01:39:13;;;;;;;0.00;0.00;;;3.20;99.90;;;;;;6213510;23;20378;-70
2021/03/08 01:41:40;;;;;;;0.00;0.00;;;3.20;99.90;;;;;;6214106;23;20398;-70
2021/03/08 01:44:06;;;;;;;0.00;0.00;;;3.00;99.90;;;;;;6213321;23;20430;-70
2021/03/08 01:46:33;;;;;;;0.00;0.00;;;3.00;99.90;;;;;;6213843;23;20375;-70
2021/03/08 01:48:59;;;;;;;0.00;0.00;;;3.00;99.90;;;;;;6213790;23;20383;-70
2021/03/08 01:51:25;;;;;;;0.00;0.00;;;2.90;99.90;;;;;;6213516;23;20384;-70
2021/03/08 01:53:52;;;;;;;0.00;0.00;;;2.80;99.90;;;;;;6213106;23;20881;-70
2021/03/08 01:56:18;;;;;;;0.00;0.00;;;2.80;99.90;;;;;;6213712;23;20379;-70
2021/03/08 01:58:44;;;;;;;0.00;0.00;;;2.90;99.90;;;;;;6213716;23;20426;-70
2021/03/08 02:01:11;;;;;;;0.00;0.00;;;2.80;99.90;;;;;;6213344;23;20753;-70
2021/03/08 02:03:38;;;;;;;0.00;0.00;;;2.80;99.90;;;;;;6213421;23;20422;-70
2021/03/08 02:06:05;;;;;;;0.00;0.00;;;2.80;99.90;;;;;;6214082;23;20399;-71
2021/03/08 02:08:32;;;;;;;0.00;0.00;;;2.90;99.90;;;;;;6213431;23;20386;-70
2021/03/08 02:10:58;;;;;;;0.00;0.00;;;2.80;99.90;;;;;;6213877;23;20372;-70
2021/03/08 02:13:58;;;;;;;0.00;0.00;;;2.80;99.90;;;;;;6212711;23;20387;-71
2021/03/08 02:16:31;;;;;;;0.00;0.00;;;2.70;99.90;;;;;;6212861;23;20376;-71
2021/03/08 02:19:06;;;;;;;0.00;0.00;;;2.60;99.90;;;;;;6213417;23;20379;-70
2021/03/08 02:22:05;;;;;;;0.00;0.00;;;2.70;99.90;;;;;;6213644;23;20746;-69
2021/03/08 02:25:11;;;;;;;0.00;0.00;;;2.80;99.90;;;;;;6212386;23;20862;-70
2021/03/08 02:28:08;;;;;;;0.00;0.00;;;2.90;99.90;;;;;;6214287;23;20911;-70
2021/03/08 02:30:42;;;;;;;0.00;0.00;;;2.90;99.90;;;;;;6213589;23;20430;-70
2021/03/08 02:33:11;;;;;;;0.00;0.00;;;2.80;99.90;;;;;;6213326;23;20391;-69
2021/03/08 02:35:41;;;;;;;0.00;0.00;;;2.90;99.90;;;;;;6213529;23;20382;-70
2021/03/08 02:38:11;;;;;;;0.00;0.00;;;2.90;99.90;;;;;;6213475;23;20375;-70
2021/03/08 02:40:41;;;;;;;0.00;0.00;;;2.90;99.90;;;;;;6213299;23;20422;-70
2021/03/08 02:43:15;;;;;;;0.00;0.00;;;3.10;99.90;;;;;;6212982;23;20375;-70
2021/03/08 02:45:43;;;;;;;0.00;0.00;;;3.20;99.90;;;;;;6213721;23;20410;-70
2021/03/08 02:48:12;;;;;;;0.00;0.00;;;3.30;99.90;;;;;;6213233;23;20371;-69
2021/03/08 02:50:38;;;;;;;0.00;0.00;;;3.10;99.90;;;;;;6213694;23;20394;-70
2021/03/08 02:53:07;;;;;;;0.00;0.00;;;2.90;99.90;;;;;;6212842;23;20392;-70
2021/03/08 02:55:40;;;;;;;0.00;0.00;;;2.90;99.90;;;;;;6213095;23;20715;-70
2021/03/08 02:58:09;;;;;;;0.00;0.00;;;2.80;99.90;;;;;;6213375;23;20379;-70
2021/03/08 03:00:37;;;;;;;0.00;0.00;;;2.70;99.90;;;;;;6213141;23;20453;-70
2021/03/08 03:03:07;;;;;;;0.00;0.00;;;2.80;99.90;;;;;;6212930;23;20375;-70
2021/03/08 03:05:35;;;;;;;0.00;0.00;;;2.80;99.90;;;;;;6212811;23;20780;-70
2021/03/08 03:08:02;;;;;;;0.00;0.00;;;2.80;99.90;;;;;;6212614;23;20877;-70
2021/03/08 03:10:31;;;;;;;0.00;0.00;;;2.70;99.90;;;;;;6213201;23;20363;-70
2021/03/08 03:12:59;;;;;;;0.00;0.00;;;2.70;99.90;;;;;;6212248;23;20394;-70
2021/03/08 03:15:26;;;;;;;0.00;0.00;;;2.60;99.90;;;;;;6212916;23;20372;-70
2021/03/08 03:17:55;;;;;;;0.00;0.00;;;2.60;99.90;;;;;;6212804;23;20372;-70
2021/03/08 03:20:23;;;;;;;0.00;0.00;;;2.60;99.90;;;;;;6212701;23;20382;-70
2021/03/08 03:22:52;;;;;;;0.00;0.00;;;2.50;99.90;;;;;;6212422;23;20371;-70
2021/03/08 03:25:20;;;;;;;0.00;0.00;;;2.50;99.90;;;;;;6212974;23;20406;-70
2021/03/08 03:27:47;;;;;;;0.00;0.00;;;2.50;99.90;;;;;;6214249;23;20367;-70
2021/03/08 03:30:17;;;;;;;0.00;0.00;;;2.60;99.90;;;;;;6215152;23;20426;-70
2021/03/08 03:32:44;;;;;;;0.00;0.00;;;2.60;99.90;;;;;;6215000;23;20706;-70
2021/03/08 03:35:12;;;;;;;0.00;0.00;;;2.60;99.90;;;;;;6215094;23;20441;-69
2021/03/08 03:37:40;;;;;;;0.00;0.00;;;2.60;99.90;;;;;;6215277;23;20433;-70
2021/03/08 03:40:08;;;;;;;0.00;0.00;;;2.70;99.90;;;;;;6214822;23;20379;-70
2021/03/08 03:42:34;;;;;;;0.00;0.00;;;2.70;99.90;;;;;;6215049;23;20402;-70
2021/03/08 03:45:01;;;;;;;0.00;0.00;;;2.70;99.90;;;;;;6214733;23;20429;-70
2021/03/08 03:47:27;;;;;;;0.00;0.00;;;2.70;99.90;;;;;;6215080;23;20376;-70
2021/03/08 03:49:54;;;;;;;0.00;0.00;;;2.70;99.90;;;;;;6214617;23;20881;-70
2021/03/08 03:52:20;;;;;;;0.00;0.00;;;2.60;99.90;;;;;;6214613;23;20394;-70
2021/03/08 03:54:48;;;;;;;0.00;0.00;;;2.80;99.90;;;;;;6214805;23;20375;-70
2021/03/08 03:57:15;;;;;;;0.00;0.00;;;2.80;99.90;;;;;;6214670;23;20842;-70
2021/03/08 03:59:47;;;;;;;0.00;0.00;;;2.90;99.90;;;;;;6214139;23;20905;-70
2021/03/08 04:02:18;;;;;;;0.00;0.00;;;2.90;99.90;;;;;;6215020;23;20429;-70
2021/03/08 04:04:50;;;;;;;0.00;0.00;;;2.70;99.90;;;;;;6214020;23;20461;-70
2021/03/08 04:07:18;;;;;;;0.00;0.00;;;2.60;99.90;;;;;;6215849;23;20376;-70
2021/03/08 04:09:48;;;;;;;0.00;0.00;;;2.70;99.90;;;;;;6214753;23;20478;-70
2021/03/08 04:12:17;;;;;;;0.00;0.00;;;2.60;99.90;;;;;;6214618;23;20461;-70
2021/03/08 04:14:46;;;;;;;0.00;0.00;;;2.70;99.90;;;;;;6214781;23;20425;-70
2021/03/08 04:17:13;;;;;;;0.00;0.00;;;2.60;99.90;;;;;;6214603;23;20376;-69
2021/03/08 04:19:41;;;;;;;0.00;0.00;;;2.50;99.90;;;;;;6215090;23;20758;-70
2021/03/08 04:22:09;;;;;;;0.00;0.00;;;2.60;99.90;;;;;;6214358;23;20855;-70
2021/03/08 04:24:39;;;;;;;0.00;0.00;;;2.60;99.90;;;;;;6214376;23;20375;-70
2021/03/08 04:27:09;;;;;;;0.00;0.00;;;2.50;99.90;;;;;;6214380;23;20378;-70
2021/03/08 04:29:37;;;;;;;0.00;0.00;;;2.50;99.90;;;;;;6214831;23;20873;-69
2021/03/08 04:32:04;;;;;;;0.00;0.00;;;2.50;99.90;;;;;;6214510;23;20379;-70
2021/03/08 04:34:32;;;;;;;0.00;0.00;;;2.60;99.90;;;;;;6214024;23;20383;-70
2021/03/08 04:36:59;;;;;;;0.00;0.00;;;2.60;99.90;;;;;;6214818;23;20380;-70
2021/03/08 04:39:26;;;;;;;0.00;0.00;;;2.70;99.90;;;;;;6214540;23;20375;-70
2021/03/08 04:41:54;;;;;;;0.00;0.00;;;2.70;99.90;;;;;;6215173;23;20375;-71
2021/03/08 04:44:21;;;;;;;0.00;0.00;;;2.70;99.90;;;;;;6214491;23;20376;-70
2021/03/08 04:46:48;;;;;;;0.00;0.00;;;2.80;99.90;;;;;;6214675;23;20380;-70
2021/03/08 04:49:17;;;;;;;0.00;0.00;;;2.80;99.90;;;;;;6214834;23;20445;-70
2021/03/08 04:51:45;;;;;;;0.00;0.00;;;2.70;99.90;;;;;;6214064;23;20379;-70
2021/03/08 04:54:11;;;;;;;0.00;0.00;;;2.60;99.90;;;;;;6213543;23;20384;-70
2021/03/08 04:56:39;;;;;;;0.00;0.00;;;2.60;99.90;;;;;;6214195;23;20757;-69
2021/03/08 04:59:05;;;;;;;0.00;0.00;;;2.60;99.90;;;;;;6214384;23;20425;-70
2021/03/08 05:01:34;;;;;;;0.00;0.00;;;2.60;99.90;;;;;;6214168;23;20383;-70
2021/03/08 05:04:03;;;;;;;0.00;0.00;;;2.70;99.90;;;;;;6213966;23;20402;-70
2021/03/08 05:06:31;;;;;;;0.00;0.00;;;2.80;99.90;;;;;;6214170;23;20408;-70
2021/03/08 05:08:58;;;;;;;0.00;0.00;;;2.70;99.90;;;;;;6213729;23;20749;-70
2021/03/08 05:11:26;;;;;;;0.00;0.00;;;2.70;99.90;;;;;;6214354;23;20372;-70
2021/03/08 05:13:53;;;;;;;0.00;0.00;;;2.90;99.90;;;;;;6213221;23;20388;-70
2021/03/08 05:16:22;;;;;;;0.00;0.00;;;3.00;99.90;;;;;;6213943;23;20866;-70
2021/03/08 05:18:49;;;;;;;0.00;0.00;;;3.00;99.90;;;;;;6214047;23;20700;-70
2021/03/08 05:21:17;;;;;;;0.00;0.00;;;3.00;99.90;;;;;;6214192;23;20379;-70
2021/03/08 05:23:45;;;;;;;0.00;0.00;;;3.20;99.90;;;;;;6213838;23;20371;-70
2021/03/08 05:26:12;;;;;;;0.00;0.00;;;3.30;99.90;;;;;;6211229;23;20372;-70
2021/03/08 05:28:38;;;;;;;0.00;0.00;;;3.30;99.90;;;;;;6213888;23;20372;-70
2021/03/08 05:31:05;;;;;;;0.00;0.00;;;3.40;99.90;;;;;;6213784;23;20371;-70
2021/03/08 05:33:32;;;;;;;0.00;0.00;;;3.40;99.90;;;;;;6213019;23;20453;-70
2021/03/08 05:36:03;;;;;;;0.00;0.00;;;3.40;99.90;;;;;;6213692;23;20862;-70
2021/03/08 05:38:31;;;;;;;0.00;0.00;;;3.40;99.90;;;;;;6213187;23;20858;-70
2021/03/08 05:41:04;;;;;;;0.00;0.00;;;3.30;99.90;;;;;;6213471;23;20375;-70
2021/03/08 05:43:35;;;;;;;0.00;0.00;;;3.40;99.90;;;;;;6213308;23;20393;-70
2021/03/08 05:46:07;;;;;;;0.00;0.00;;;3.40;99.90;;;;;;6213251;23;20386;-71
2021/03/08 05:49:10;;;;;;;0.00;0.00;;;3.30;99.90;;;;;;6213030;23;20495;-68
2021/03/08 05:52:12;;;;;;;0.00;0.00;;;3.50;99.90;;;;;;6213311;23;20390;-68
2021/03/08 05:55:26;;;;;;;0.00;0.00;;;3.60;99.90;;;;;;6163004;23;20372;-68
2021/03/08 05:58:26;;;;;;;0.00;0.00;;;3.60;99.90;;;;;;6213520;23;20380;-68
2021/03/08 06:01:14;;;;;;;0.00;0.00;;;3.60;99.90;;;;;;6205212;23;20384;-68
2021/03/08 06:04:01;;;;;;;0.00;0.00;;;3.50;99.90;;;;;;6213300;23;20423;-68
2021/03/08 06:07:04;;;;;;;0.00;0.00;;;3.50;99.90;;;;;;6213403;23;20477;-68
2021/03/08 06:09:46;;;;;;;0.00;0.00;;;3.60;99.90;;;;;;6213163;23;20495;-68
2021/03/08 06:12:17;;;;;;;0.00;0.00;;;3.50;99.90;;;;;;6213225;23;20466;-69
2021/03/08 06:14:45;;;;;;;0.00;0.00;;;3.60;99.90;;;;;;6212961;23;20428;-68
2021/03/08 06:17:14;;;;;;;0.00;0.00;;;3.60;99.90;;;;;;6213083;23;20375;-69
2021/03/08 06:19:41;;;;;;;0.00;0.00;;;3.60;99.90;;;;;;6212918;23;20411;-69
2021/03/08 06:22:09;;;;;;;0.00;0.00;;;3.40;99.90;;;;;;6213239;23;20859;-70
2021/03/08 06:24:38;;;;;;;0.00;0.00;;;3.50;99.90;;;;;;6213092;23;20376;-73
2021/03/08 06:27:07;;;;;;;0.00;0.00;;;3.50;99.90;;;;;;6212737;23;20375;-73
2021/03/08 06:29:42;;;;;;;0.00;0.00;;;3.40;99.90;;;;;;6209800;23;20383;-73
2021/03/08 06:32:11;;;;;;;0.00;0.00;;;3.40;99.90;;;;;;6212707;23;20388;-70
2021/03/08 06:34:39;;;;;;;0.00;0.00;;;3.40;99.90;;;;;;6213104;23;20757;-74
2021/03/08 06:37:07;;;;;;;0.00;0.00;;;3.50;99.90;;;;;;6212116;23;20550;-73
2021/03/08 06:39:39;;;;;;;0.00;0.00;;;3.60;99.90;;;;;;6212422;23;20376;-71
2021/03/08 06:42:07;;;;;;;0.00;0.00;;;3.70;99.90;;;;;;6212022;23;20399;-71
2021/03/08 06:44:34;;;;;;;0.00;0.00;;;3.60;99.90;;;;;;6212291;23;20386;-73
2021/03/08 06:47:00;;;;;;;0.00;0.00;;;3.60;99.90;;;;;;6212957;23;20392;-73
2021/03/08 06:49:26;;;;;;;0.00;0.00;;;3.60;99.90;;;;;;6212137;23;20714;-71
2021/03/08 06:52:04;;;;;;;0.00;0.00;;;3.90;99.90;;;;;;6212618;23;20430;-70
2021/03/08 06:54:32;;;;;;;0.00;0.00;;;3.60;99.90;;;;;;6211276;23;20414;-68
2021/03/08 06:56:59;;;;;;;0.00;0.00;;;3.60;99.90;;;;;;6211990;23;20403;-69
2021/03/08 06:59:25;;;;;;;0.00;0.00;;;3.40;99.90;;;;;;6212339;23;20376;-72
2021/03/08 07:01:53;;;;;;;0.00;0.00;;;3.30;99.90;;;;;;6211735;23;20462;-70
2021/03/08 07:04:22;;;;;;;0.00;0.00;;;3.10;99.90;;;;;;6212398;23;20379;-69
2021/03/08 07:07:02;;;;;;;0.00;0.00;;;3.10;99.90;;;;;;6212465;23;21046;-67
2021/03/08 07:09:29;;;;;;;0.00;0.00;;;2.80;99.90;;;;;;6212233;23;20386;-72
2021/03/08 07:12:07;;;;;;;0.00;0.00;;;2.70;99.90;;;;;;6212484;23;20514;-69
2021/03/08 07:14:34;;;;;;;0.00;0.00;;;2.70;99.90;;;;;;6211903;23;20387;-72
2021/03/08 07:17:00;;;;;;;0.00;0.00;;;2.60;99.90;;;;;;6212604;23;20735;-72
2021/03/08 07:19:26;;;;;;;0.00;0.00;;;2.50;99.90;;;;;;6211720;23;20387;-71
2021/03/08 07:21:53;;;;;;;0.00;0.00;;;2.40;99.90;;;;;;6211603;23;20388;-71
2021/03/08 07:24:20;;;;;;;0.00;0.00;;;2.30;99.90;;;;;;6211324;23;20850;-68
2021/03/08 07:26:50;;;;;;;0.00;0.00;;;2.50;99.90;;;;;;6212046;23;20406;-69
2021/03/08 07:29:21;;;;;;;0.00;0.00;;;2.50;99.90;;;;;;6212157;23;20398;-76
2021/03/08 07:31:52;;;;;;;0.00;0.00;;;2.60;99.90;;;;;;6211421;23;20392;-69
2021/03/08 07:35:15;;;;;;;0.00;0.00;;;2.70;99.90;;;;;;6211690;23;20388;-71
2021/03/08 07:37:47;;;;;;;0.00;0.00;;;2.90;99.90;;;;;;6211526;23;20430;-69
2021/03/08 07:40:23;;;;;;;0.00;0.00;;;2.90;99.90;;;;;;6211902;23;20375;-71
2021/03/08 07:42:49;;;;;;;0.00;0.00;;;3.00;99.90;;;;;;6211966;23;20372;-69
2021/03/08 07:45:23;;;;;;;0.00;0.00;;;3.10;99.90;;;;;;6211943;23;20392;-69
2021/03/08 07:48:07;;;;;;;0.00;0.00;;;3.20;99.90;;;;;;6211672;23;20479;-70
2021/03/08 07:50:51;;;;;;;0.00;0.00;;;3.20;99.90;;;;;;6212135;23;20400;-71
2021/03/08 07:53:27;;;;;;;0.00;0.00;;;3.20;99.90;;;;;;6210084;23;20454;-69
2021/03/08 07:55:54;;;;;;;0.00;0.00;;;3.00;99.90;;;;;;6211919;23;20968;-69
2021/03/08 07:58:20;;;;;;;0.00;0.00;;;2.70;99.90;;;;;;6212240;23;20383;-71
2021/03/08 08:00:47;;;;;;;0.00;0.00;;;2.40;99.90;;;;;;6212440;23;20433;-69
2021/03/08 08:03:16;;;;;;;0.00;0.00;;;2.50;99.90;;;;;;6211822;23;20372;-74
2021/03/08 08:05:44;;;;;;;0.00;0.00;;;2.80;99.90;;;;;;6211511;23;20707;-71
2021/03/08 08:08:14;;;;;;;0.00;0.00;;;2.90;99.90;;;;;;6211582;23;20422;-72
2021/03/08 08:10:41;;;;;;;0.00;0.00;;;2.80;99.90;;;;;;6211332;23;20384;-72
2021/03/08 08:13:11;;;;;;;0.00;0.00;;;2.90;99.90;;;;;;6211387;23;20388;-72
2021/03/08 08:15:43;;;;;;;0.00;0.00;;;3.40;99.90;;;;;;6214026;23;20711;-72
2021/03/08 08:18:17;;;;;;;0.00;0.00;;;2.70;99.90;;;;;;6213133;23;20466;-72
2021/03/08 08:20:49;;;;;;;0.00;0.00;;;2.80;99.90;;;;;;6213047;23;20390;-73
2021/03/08 08:23:20;;;;;;;0.00;0.00;;;2.70;99.90;;;;;;6212922;23;20383;-72
2021/03/08 08:25:47;;;;;;;0.00;0.00;;;2.80;99.90;;;;;;6213119;23;20387;-71
2021/03/08 08:28:19;;;;;;;0.00;0.00;;;2.80;99.90;;;;;;6213193;23;20395;-72
2021/03/08 08:30:56;;;;;;;0.00;0.00;;;3.00;99.90;;;;;;6213692;23;20383;-72
2021/03/08 08:33:32;;;;;;;0.00;0.00;;;3.20;99.90;;;;;;6213080;23;20394;-72
2021/03/08 08:36:09;;;;;;;0.00;0.00;;;3.20;99.90;;;;;;6215507;23;20385;-71
2021/03/08 08:38:36;;;;;;;0.00;0.00;;;3.30;99.90;;;;;;6213659;23;20467;-70
2021/03/08 08:41:24;;;;;;;0.00;0.00;;;3.30;99.90;;;;;;6213157;23;20470;-73
2021/03/08 08:44:38;;;;;;;0.00;0.00;;;3.30;99.90;;;;;;6213088;23;20467;-71
2021/03/08 08:47:26;;;;;;;0.00;0.00;;;3.40;99.90;;;;;;6213327;23;20454;-73
2021/03/08 08:49:56;;;;;;;0.00;0.00;;;3.40;99.90;;;;;;6212341;23;20418;-72
2021/03/08 08:52:51;;;;;;;0.00;0.00;;;3.10;99.90;;;;;;6214213;23;20387;-72
2021/03/08 08:55:21;;;;;;;0.00;0.00;;;2.90;99.90;;;;;;6213182;23;20383;-73
2021/03/08 08:58:26;;;;;;;0.00;0.00;;;2.90;99.90;;;;;;6213026;23;20387;-74
2021/03/08 09:01:41;;;;;;;0.00;0.00;;;3.00;99.90;;;;;;6213202;23;20876;-73
2021/03/08 09:04:11;;;;;;;0.00;0.00;;;1.90;99.90;;;;;;6212588;23;20379;-73
2021/03/08 09:09:58;;;;;;;0.00;0.00;;;3.50;99.90;;;;;;6212459;23;20379;-72
2021/03/08 09:12:32;;;;;;;0.00;0.00;;;3.40;99.90;;;;;;6213781;23;20372;-73
2021/03/08 09:14:59;;;;;;;0.00;0.00;;;3.40;99.90;;;;;;6213174;23;20368;-72
2021/03/08 09:17:27;;;;;;;0.00;0.00;;;3.40;99.90;;;;;;6214106;23;20387;-70
2021/03/08 09:20:25;;;;;;;0.00;0.00;;;3.60;99.90;;;;;;6213378;23;20403;-70
2021/03/08 09:22:55;;;;;;;0.00;0.00;;;3.50;99.90;;;;;;6214177;23;20483;-71
2021/03/08 09:25:25;;;;;;;0.00;0.00;;;3.40;99.90;;;;;;6212509;23;20429;-73
2021/03/08 09:28:07;;;;;;;0.00;0.00;;;3.50;99.90;;;;;;6213668;23;21000;-71
2021/03/08 09:30:42;;;;;;;0.00;0.00;;;3.80;99.90;;;;;;6212734;23;20410;-72
2021/03/08 09:33:11;;;;;;;0.00;0.00;;;3.60;99.90;;;;;;6212987;23;20392;-72
2021/03/08 09:35:43;;;;;;;0.00;0.00;;;3.70;99.90;;;;;;6212991;23;20383;-73
2021/03/08 09:38:13;;;;;;;0.00;0.00;;;3.80;99.90;;;;;;6186267;23;20390;-69
2021/03/08 09:40:41;;;;;;;0.00;0.00;;;3.80;99.90;;;;;;6213309;23;20376;-71
2021/03/08 09:43:24;;;;;;;0.00;0.00;;;3.50;99.90;;;;;;6213420;23;20378;-71
2021/03/08 09:45:58;;;;;;;0.00;0.00;;;3.70;99.90;;;;;;6212992;23;20386;-72
2021/03/08 09:48:25;;;;;;;0.00;0.00;;;3.60;99.90;;;;;;6212104;23;20799;-70
2021/03/08 09:50:51;;;;;;;0.00;0.00;;;3.60;99.90;;;;;;6213213;23;20382;-69
2021/03/08 09:53:18;;;;;;;0.00;0.00;;;3.50;99.90;;;;;;6212752;23;20393;-70
2021/03/08 09:55:45;;;;;;;0.00;0.00;;;3.40;99.90;;;;;;6213177;23;20375;-69
2021/03/08 09:58:18;;;;;;;0.00;0.00;;;3.30;99.90;;;;;;6212018;23;20445;-70
2021/03/08 10:00:47;;;;;;;0.00;0.00;;;3.60;99.90;;;;;;6213314;23;20382;-71
2021/03/08 10:03:13;;;;;;;0.00;0.00;;;3.80;99.90;;;;;;6212792;23;20518;-71
2021/03/08 10:05:44;;;;;;;0.00;0.00;;;4.00;99.90;;;;;;6213043;23;20479;-71
2021/03/08 10:08:12;;;;;;;0.00;0.00;;;4.20;1.00;;;;;;6212622;23;20830;-71
2021/03/08 10:10:44;;;;;;;0.00;0.00;;;4.20;99.90;;;;;;6212457;23;20442;-71
2021/03/08 10:13:11;;;;;;;0.00;0.00;;;4.30;99.90;;;;;;6212963;23;20466;-71
2021/03/08 10:15:42;;;;;;;0.00;0.00;;;4.40;99.90;;;;;;6212565;23;20376;-71
2021/03/08 10:18:09;;;;;;;0.00;0.00;;;4.40;99.90;;;;;;6211605;23;20453;-72
2021/03/08 10:20:46;;;;;;;0.00;0.00;;;4.40;99.90;;;;;;6212319;23;20386;-71
2021/03/08 10:23:20;;;;;;;0.00;0.00;;;4.10;99.90;;;;;;6212844;23;20411;-71
2021/03/08 10:25:48;;;;;;;0.00;0.00;;;4.00;99.90;;;;;;6212922;23;20375;-72
2021/03/08 10:28:14;;;;;;;0.00;0.00;;;3.70;99.90;;;;;;6212474;23;20383;-71
2021/03/08 10:30:41;;;;;;;0.00;0.00;;;3.80;99.90;;;;;;6212590;23;20383;-74
2021/03/08 10:33:08;;;;;;;0.00;0.00;;;4.00;99.90;;;;;;6212690;23;20388;-68
2021/03/08 10:35:37;;;;;;;0.00;0.00;;;4.10;99.90;;;;;;6212533;23;20372;-71
2021/03/08 10:38:04;;;;;;;0.00;0.00;;;4.20;99.90;;;;;;6212310;23;20496;-70
2021/03/08 10:40:31;;;;;;;0.00;0.00;;;4.10;99.90;;;;;;6212727;23;20383;-70
2021/03/08 10:42:59;;;;;;;0.00;0.00;;;4.20;99.90;;;;;;6213226;23;20379;-70
2021/03/08 10:45:26;;;;;;;0.00;0.00;;;4.50;99.90;;;;;;6214240;23;20698;-70
2021/03/08 10:48:06;;;;;;;0.00;0.00;;;4.70;99.90;;;;;;6213360;23;20379;-69
2021/03/08 10:50:44;;;;;;;0.00;0.00;;;4.70;99.90;;;;;;6212298;23;20379;-71
2021/03/08 10:53:11;;;;;;;0.00;0.00;;;4.90;99.90;;;;;;6212809;23;20902;-70
2021/03/08 10:55:40;;;;;;;0.00;0.00;;;5.10;99.90;;;;;;6212416;23;20715;-74
2021/03/08 10:58:08;;;;;;;0.00;0.00;;;5.30;99.90;;;;;;6212219;23;20385;-72
2021/03/08 11:00:36;;;;;;;0.00;0.00;;;5.30;99.90;;;;;;6211145;23;20419;-73
2021/03/08 11:03:02;;;;;;;0.00;0.00;;;5.50;99.90;;;;;;6211802;23;20388;-70
2021/03/08 11:05:29;;;;;;;0.00;0.00;;;5.20;99.90;;;;;;6212456;23;20383;-71
2021/03/08 11:07:57;;;;;;;0.00;0.00;;;4.80;99.90;;;;;;6212519;23;20711;-70
2021/03/08 11:10:35;;;;;;;0.00;0.00;;;4.80;99.90;;;;;;6212014;23;20929;-71
2021/03/08 11:13:02;;;;;;;0.00;0.00;;;4.90;99.90;;;;;;6212137;23;20474;-70
2021/03/08 11:15:30;;;;;;;0.00;0.00;;;5.00;99.90;;;;;;6212096;23;20426;-71
2021/03/08 11:17:56;;;;;;;0.00;0.00;;;4.90;99.90;;;;;;6212807;23;20392;-71
2021/03/08 11:20:26;;;;;;;0.00;0.00;;;5.00;99.90;;;;;;6212896;23;20387;-71
2021/03/08 11:22:59;;;;;;;0.00;0.00;;;5.20;99.90;;;;;;6213752;23;20379;-72
2021/03/08 11:25:30;;;;;;;0.00;0.00;;;5.20;99.90;;;;;;6212582;23;20473;-72
2021/03/08 11:27:57;;;;;;;0.00;0.00;;;5.30;99.90;;;;;;6212334;23;20388;-72
2021/03/08 11:30:32;;;;;;;0.00;0.00;;;5.30;99.90;;;;;;6216826;23;20391;-72
2021/03/08 11:33:00;;;;;;;0.00;0.00;;;5.30;99.90;;;;;;6215789;23;20427;-72
2021/03/08 11:35:30;;;;;;;0.00;0.00;;;5.50;99.90;;;;;;6214438;23;20375;-73
2021/03/08 11:37:58;;;;;;;0.00;0.00;;;5.50;99.90;;;;;;6213537;23;20719;-71
2021/03/08 11:40:25;;;;;;;0.00;0.00;;;5.20;99.90;;;;;;6212032;23;20737;-71
2021/03/08 11:42:52;;;;;;;0.00;0.00;;;5.00;99.90;;;;;;6212731;23;20432;-71
2021/03/08 11:48:04;;;;;;;0.00;0.00;;;5.30;99.90;;;;;;6188949;23;20371;-72
2021/03/08 11:50:32;;;;;;;0.00;0.00;;;5.50;99.90;;;;;;6214087;23;20371;-70
2021/03/08 11:52:59;;;;;;;0.00;0.00;;;5.40;99.90;;;;;;6214251;23;20489;-71
2021/03/08 11:55:27;;;;;;;0.00;0.00;;;5.50;99.90;;;;;;6214764;23;20375;-73
2021/03/08 11:57:53;;;;;;;0.00;0.00;;;5.60;99.90;;;;;;6213931;23;20387;-71
2021/03/08 12:00:21;;;;;;;0.00;0.00;;;5.70;99.90;;;;;;6213917;23;21110;-73
2021/03/08 12:02:49;;;;;;;0.00;0.00;;;5.70;99.90;;;;;;6214502;23;20392;-74
2021/03/08 12:05:16;;;;;;;0.00;0.00;;;5.70;99.90;;;;;;6214434;23;20907;-70
2021/03/08 12:07:43;;;;;;;0.00;0.00;;;5.80;99.90;;;;;;6217211;23;20387;-72
2021/03/08 12:10:11;;;;;;;0.00;0.00;;;5.90;99.90;;;;;;6220495;23;20443;-71
2021/03/08 12:12:37;;;;;;;0.00;0.00;;;5.60;99.90;;;;;;6217619;23;20387;-71
2021/03/08 12:15:04;;;;;;;0.00;0.00;;;5.20;99.90;;;;;;6217497;23;20561;-71
2021/03/08 12:17:31;;;;;;;0.00;0.00;;;5.20;99.90;;;;;;6216279;23;20379;-71
2021/03/08 12:19:57;;;;;;;0.00;0.00;;;5.40;99.90;;;;;;6215323;23;20425;-71
2021/03/08 12:22:24;;;;;;;0.00;0.00;;;5.60;99.90;;;;;;6214779;23;20379;-72
2021/03/08 12:24:50;;;;;;;0.00;0.00;;;5.60;99.90;;;;;;6214715;23;20410;-70
2021/03/08 12:27:17;;;;;;;0.00;0.00;;;5.60;99.90;;;;;;6216592;23;20386;-70
2021/03/08 12:29:43;;;;;;;0.00;0.00;;;5.70;99.90;;;;;;6214410;23;20382;-70
2021/03/08 12:32:09;;;;;;;0.00;0.00;;;5.70;99.90;;;;;;6217491;23;20460;-72
2021/03/08 12:34:35;;;;;;;0.00;0.00;;;5.60;99.90;;;;;;6216104;23;20695;-73
2021/03/08 12:37:02;;;;;;;0.00;0.00;;;5.60;99.90;;;;;;6214817;23;20410;-72
2021/03/08 12:39:29;;;;;;;0.00;0.00;;;5.70;99.90;;;;;;6213751;23;20380;-69
2021/03/08 12:41:55;;;;;;;0.00;0.00;;;5.70;99.90;;;;;;6214177;23;20710;-71
2021/03/08 12:44:22;;;;;;;0.00;0.00;;;5.60;99.90;;;;;;6214383;23;20375;-73
2021/03/08 12:46:49;;;;;;;0.00;0.00;;;5.50;99.90;;;;;;6216535;23;20398;-74
2021/03/08 12:49:15;;;;;;;0.00;0.00;;;5.60;99.90;;;;;;6217326;23;20376;-72
2021/03/08 12:51:41;;;;;;;0.00;0.00;;;5.70;99.90;;;;;;6215529;23;20376;-72
2021/03/08 12:54:08;;;;;;;0.00;0.00;;;5.80;99.90;;;;;;6215389;23;20418;-75
2021/03/08 12:56:35;;;;;;;0.00;0.00;;;5.50;99.90;;;;;;6214286;23;20577;-71
2021/03/08 12:59:01;;;;;;;0.00;0.00;;;5.70;99.90;;;;;;6213577;23;20382;-72
2021/03/08 13:01:28;;;;;;;0.00;0.00;;;5.70;99.90;;;;;;6214268;23;20383;-72
2021/03/08 13:03:54;;;;;;;0.00;0.00;;;5.50;99.90;;;;;;6213899;23;20434;-72
2021/03/08 13:06:20;;;;;;;0.00;0.00;;;5.40;99.90;;;;;;6214598;23;20371;-73
2021/03/08 13:08:47;;;;;;;0.00;0.00;;;5.40;99.90;;;;;;6214636;23;20745;-72
2021/03/08 13:11:13;;;;;;;0.00;0.00;;;5.50;99.90;;;;;;6214246;23;20387;-71
2021/03/08 13:13:40;;;;;;;0.00;0.00;;;5.50;99.90;;;;;;6214030;23;20388;-71
2021/03/08 13:16:06;;;;;;;0.00;0.00;;;5.70;99.90;;;;;;6213454;23;20391;-71
2021/03/08 13:18:33;;;;;;;0.00;0.00;;;5.80;99.90;;;;;;6213798;23;20380;-70
2021/03/08 13:20:59;;;;;;;0.00;0.00;;;5.80;99.90;;;;;;6214541;23;20766;-70